Terminal Aerodrome Forecast
Issued by NWS

Home | Current Version | Previous Version | Text Only | Print | Product List | Glossary On
Versions: 1 2 3 4 5 6 7 8 9 10 11 12 13 14 15
000
FTUS43 KDTX 010521
TAFYIP
TAF
KYIP 010521Z 0106/0206 07005KT P6SM SCT150
     FM011400 12007KT P6SM BKN150
     FM012200 15010KT 6SM -SHRA OVC070
     FM020100 18007KT 3SM SHRA OVC040=

USA.gov is the U.S. government's official web portal to all federal, state and local government web resources and services.